sensor_id;sensor_type;location;lat;lon;timestamp;temperature;humidity
44533;DHT22;48673;53.016;-2.258;2022-09-21T00:01:29;14.40;79.10
44533;DHT22;48673;53.016;-2.258;2022-09-21T00:04:00;14.40;79.20
44533;DHT22;48673;53.016;-2.258;2022-09-21T00:06:31;14.30;79.20
44533;DHT22;48673;53.016;-2.258;2022-09-21T00:08:59;14.30;79.30
44533;DHT22;48673;53.016;-2.258;2022-09-21T00:11:29;14.20;79.30
44533;DHT22;48673;53.016;-2.258;2022-09-21T00:14:03;14.20;79.30
44533;DHT22;48673;53.016;-2.258;2022-09-21T00:16:34;14.20;79.30
44533;DHT22;48673;53.016;-2.258;2022-09-21T00:19:02;14.20;79.30
44533;DHT22;48673;53.016;-2.258;2022-09-21T00:21:31;14.10;79.30
44533;DHT22;48673;53.016;-2.258;2022-09-21T00:23:59;14.10;79.30
44533;DHT22;48673;53.016;-2.258;2022-09-21T00:26:29;14.10;79.40
44533;DHT22;48673;53.016;-2.258;2022-09-21T00:29:00;14.10;79.40
44533;DHT22;48673;53.016;-2.258;2022-09-21T00:31:28;14.10;79.50
44533;DHT22;48673;53.016;-2.258;2022-09-21T00:33:58;14.00;79.60
44533;DHT22;48673;53.016;-2.258;2022-09-21T00:36:27;14.00;79.70
44533;DHT22;48673;53.016;-2.258;2022-09-21T00:38:56;14.00;79.80
44533;DHT22;48673;53.016;-2.258;2022-09-21T00:41:25;14.00;79.70
44533;DHT22;48673;53.016;-2.258;2022-09-21T00:46:40;13.90;80.00
44533;DHT22;48673;53.016;-2.258;2022-09-21T00:49:09;13.90;80.00
44533;DHT22;48673;53.016;-2.258;2022-09-21T00:51:37;13.90;80.20
44533;DHT22;48673;53.016;-2.258;2022-09-21T00:54:09;14.00;80.30
44533;DHT22;48673;53.016;-2.258;2022-09-21T00:56:42;13.90;80.50
44533;DHT22;48673;53.016;-2.258;2022-09-21T00:59:12;13.90;80.60
44533;DHT22;48673;53.016;-2.258;2022-09-21T01:01:40;13.90;80.70
44533;DHT22;48673;53.016;-2.258;2022-09-21T01:04:10;13.90;80.80
44533;DHT22;48673;53.016;-2.258;2022-09-21T01:06:39;13.90;80.90
44533;DHT22;48673;53.016;-2.258;2022-09-21T01:09:08;13.90;81.00
44533;DHT22;48673;53.016;-2.258;2022-09-21T01:11:46;13.90;81.20
44533;DHT22;48673;53.016;-2.258;2022-09-21T01:14:25;13.80;81.40
44533;DHT22;48673;53.016;-2.258;2022-09-21T01:17:14;13.80;81.50
44533;DHT22;48673;53.016;-2.258;2022-09-21T01:31:13;13.80;81.70
44533;DHT22;48673;53.016;-2.258;2022-09-21T01:33:50;13.80;81.80
44533;DHT22;48673;53.016;-2.258;2022-09-21T01:36:23;13.70;81.90
44533;DHT22;48673;53.016;-2.258;2022-09-21T01:38:57;13.70;81.90
44533;DHT22;48673;53.016;-2.258;2022-09-21T01:41:28;13.70;81.90
44533;DHT22;48673;53.016;-2.258;2022-09-21T01:44:02;13.80;82.00
44533;DHT22;48673;53.016;-2.258;2022-09-21T01:46:36;13.70;82.10
44533;DHT22;48673;53.016;-2.258;2022-09-21T01:49:10;13.70;82.10
44533;DHT22;48673;53.016;-2.258;2022-09-21T01:52:08;13.60;82.20
44533;DHT22;48673;53.016;-2.258;2022-09-21T01:54:53;13.60;82.30
44533;DHT22;48673;53.016;-2.258;2022-09-21T01:57:35;13.60;82.40
44533;DHT22;48673;53.016;-2.258;2022-09-21T02:00:06;13.50;82.50
44533;DHT22;48673;53.016;-2.258;2022-09-21T02:05:14;13.30;82.90
44533;DHT22;48673;53.016;-2.258;2022-09-21T02:07:44;13.10;83.10
44533;DHT22;48673;53.016;-2.258;2022-09-21T02:10:19;13.00;83.30
44533;DHT22;48673;53.016;-2.258;2022-09-21T02:12:52;12.90;83.60
44533;DHT22;48673;53.016;-2.258;2022-09-21T02:15:39;12.70;83.80
44533;DHT22;48673;53.016;-2.258;2022-09-21T02:21:00;12.40;84.30
44533;DHT22;48673;53.016;-2.258;2022-09-21T02:34:33;12.00;85.10
44533;DHT22;48673;53.016;-2.258;2022-09-21T02:42:21;12.00;85.30
44533;DHT22;48673;53.016;-2.258;2022-09-21T02:47:50;12.10;85.50
44533;DHT22;48673;53.016;-2.258;2022-09-21T02:50:23;12.10;85.50
44533;DHT22;48673;53.016;-2.258;2022-09-21T02:52:53;12.10;85.60
44533;DHT22;48673;53.016;-2.258;2022-09-21T02:55:21;12.20;85.60
44533;DHT22;48673;53.016;-2.258;2022-09-21T02:57:52;12.20;85.60
44533;DHT22;48673;53.016;-2.258;2022-09-21T03:00:24;12.20;85.80
44533;DHT22;48673;53.016;-2.258;2022-09-21T03:02:52;12.30;85.80
44533;DHT22;48673;53.016;-2.258;2022-09-21T03:05:20;12.30;85.80
44533;DHT22;48673;53.016;-2.258;2022-09-21T03:07:47;12.30;85.90
44533;DHT22;48673;53.016;-2.258;2022-09-21T03:10:15;12.40;85.90
44533;DHT22;48673;53.016;-2.258;2022-09-21T03:12:45;12.40;85.90
44533;DHT22;48673;53.016;-2.258;2022-09-21T03:15:13;12.40;85.90
44533;DHT22;48673;53.016;-2.258;2022-09-21T03:17:42;12.40;85.90
44533;DHT22;48673;53.016;-2.258;2022-09-21T03:20:10;12.40;85.90
44533;DHT22;48673;53.016;-2.258;2022-09-21T03:22:41;12.50;86.00
44533;DHT22;48673;53.016;-2.258;2022-09-21T03:25:08;12.50;85.90
44533;DHT22;48673;53.016;-2.258;2022-09-21T03:27:38;12.60;85.80
44533;DHT22;48673;53.016;-2.258;2022-09-21T03:30:08;12.60;85.80
44533;DHT22;48673;53.016;-2.258;2022-09-21T03:32:35;12.60;85.70
44533;DHT22;48673;53.016;-2.258;2022-09-21T03:35:03;12.60;85.60
44533;DHT22;48673;53.016;-2.258;2022-09-21T03:37:31;12.70;85.50
44533;DHT22;48673;53.016;-2.258;2022-09-21T03:39:59;12.70;85.40
44533;DHT22;48673;53.016;-2.258;2022-09-21T03:42:27;12.70;85.30
44533;DHT22;48673;53.016;-2.258;2022-09-21T03:44:55;12.70;85.20
44533;DHT22;48673;53.016;-2.258;2022-09-21T03:47:22;12.70;85.10
44533;DHT22;48673;53.016;-2.258;2022-09-21T03:49:50;12.70;85.10
44533;DHT22;48673;53.016;-2.258;2022-09-21T03:52:18;12.60;85.00
44533;DHT22;48673;53.016;-2.258;2022-09-21T03:54:45;12.60;85.00
44533;DHT22;48673;53.016;-2.258;2022-09-21T03:57:13;12.60;85.10
44533;DHT22;48673;53.016;-2.258;2022-09-21T03:59:41;12.50;85.00
44533;DHT22;48673;53.016;-2.258;2022-09-21T04:02:08;12.40;85.10
44533;DHT22;48673;53.016;-2.258;2022-09-21T04:04:36;12.40;85.20
44533;DHT22;48673;53.016;-2.258;2022-09-21T04:07:04;12.30;85.20
44533;DHT22;48673;53.016;-2.258;2022-09-21T04:09:32;12.30;85.30
44533;DHT22;48673;53.016;-2.258;2022-09-21T04:12:00;12.20;85.40
44533;DHT22;48673;53.016;-2.258;2022-09-21T04:14:27;12.20;85.50
44533;DHT22;48673;53.016;-2.258;2022-09-21T04:16:56;12.10;85.60
44533;DHT22;48673;53.016;-2.258;2022-09-21T04:19:24;12.00;85.60
44533;DHT22;48673;53.016;-2.258;2022-09-21T04:21:52;11.90;85.80
44533;DHT22;48673;53.016;-2.258;2022-09-21T04:24:20;11.80;85.90
44533;DHT22;48673;53.016;-2.258;2022-09-21T04:26:48;11.70;86.00
44533;DHT22;48673;53.016;-2.258;2022-09-21T04:29:16;11.60;86.10
44533;DHT22;48673;53.016;-2.258;2022-09-21T04:31:43;11.50;86.20
44533;DHT22;48673;53.016;-2.258;2022-09-21T04:34:12;11.40;86.30
44533;DHT22;48673;53.016;-2.258;2022-09-21T04:36:40;11.30;86.50
44533;DHT22;48673;53.016;-2.258;2022-09-21T04:39:09;11.20;86.40
44533;DHT22;48673;53.016;-2.258;2022-09-21T04:41:37;11.10;86.60
44533;DHT22;48673;53.016;-2.258;2022-09-21T04:44:05;11.00;86.70
44533;DHT22;48673;53.016;-2.258;2022-09-21T04:46:32;10.90;86.80
44533;DHT22;48673;53.016;-2.258;2022-09-21T04:49:00;10.90;86.90
44533;DHT22;48673;53.016;-2.258;2022-09-21T04:51:28;10.80;87.00
44533;DHT22;48673;53.016;-2.258;2022-09-21T04:53:56;10.70;87.20
44533;DHT22;48673;53.016;-2.258;2022-09-21T04:56:24;10.60;87.20
44533;DHT22;48673;53.016;-2.258;2022-09-21T04:58:51;10.50;87.30
44533;DHT22;48673;53.016;-2.258;2022-09-21T05:01:19;10.50;87.40
44533;DHT22;48673;53.016;-2.258;2022-09-21T05:03:47;10.40;87.50
44533;DHT22;48673;53.016;-2.258;2022-09-21T05:06:15;10.40;87.70
44533;DHT22;48673;53.016;-2.258;2022-09-21T05:08:43;10.40;87.80
44533;DHT22;48673;53.016;-2.258;2022-09-21T05:11:28;10.40;87.80
44533;DHT22;48673;53.016;-2.258;2022-09-21T05:13:56;10.30;87.90
44533;DHT22;48673;53.016;-2.258;2022-09-21T05:16:24;10.20;87.90
44533;DHT22;48673;53.016;-2.258;2022-09-21T05:18:52;10.20;88.10
44533;DHT22;48673;53.016;-2.258;2022-09-21T05:21:23;10.10;88.10
44533;DHT22;48673;53.016;-2.258;2022-09-21T05:23:51;10.10;88.30
44533;DHT22;48673;53.016;-2.258;2022-09-21T05:26:19;10.00;88.30
44533;DHT22;48673;53.016;-2.258;2022-09-21T05:28:48;10.00;88.40
44533;DHT22;48673;53.016;-2.258;2022-09-21T05:33:52;9.90;88.60
44533;DHT22;48673;53.016;-2.258;2022-09-21T05:36:51;9.90;88.60
44533;DHT22;48673;53.016;-2.258;2022-09-21T05:39:21;9.90;88.70
44533;DHT22;48673;53.016;-2.258;2022-09-21T05:41:49;9.90;88.60
44533;DHT22;48673;53.016;-2.258;2022-09-21T05:44:18;9.90;88.70
44533;DHT22;48673;53.016;-2.258;2022-09-21T05:47:02;9.80;88.70
44533;DHT22;48673;53.016;-2.258;2022-09-21T05:49:48;9.80;88.90
44533;DHT22;48673;53.016;-2.258;2022-09-21T05:58:23;9.70;88.90
44533;DHT22;48673;53.016;-2.258;2022-09-21T06:03:40;9.70;89.10
44533;DHT22;48673;53.016;-2.258;2022-09-21T06:06:12;9.70;89.00
44533;DHT22;48673;53.016;-2.258;2022-09-21T06:08:41;9.60;89.00
44533;DHT22;48673;53.016;-2.258;2022-09-21T06:11:08;9.60;89.00
44533;DHT22;48673;53.016;-2.258;2022-09-21T06:13:36;9.60;89.00
44533;DHT22;48673;53.016;-2.258;2022-09-21T06:16:04;9.60;89.00
44533;DHT22;48673;53.016;-2.258;2022-09-21T06:18:39;9.70;89.10
44533;DHT22;48673;53.016;-2.258;2022-09-21T06:21:07;9.70;89.30
44533;DHT22;48673;53.016;-2.258;2022-09-21T06:23:36;9.70;89.40
44533;DHT22;48673;53.016;-2.258;2022-09-21T06:26:05;9.80;89.50
44533;DHT22;48673;53.016;-2.258;2022-09-21T06:28:33;9.90;89.60
44533;DHT22;48673;53.016;-2.258;2022-09-21T06:31:00;9.90;89.60
44533;DHT22;48673;53.016;-2.258;2022-09-21T06:33:28;9.90;89.60
44533;DHT22;48673;53.016;-2.258;2022-09-21T06:35:58;10.00;89.70
44533;DHT22;48673;53.016;-2.258;2022-09-21T06:38:27;10.10;89.70
44533;DHT22;48673;53.016;-2.258;2022-09-21T06:41:00;10.10;89.70
44533;DHT22;48673;53.016;-2.258;2022-09-21T06:43:30;10.20;89.80
44533;DHT22;48673;53.016;-2.258;2022-09-21T06:45:59;10.20;89.90
44533;DHT22;48673;53.016;-2.258;2022-09-21T06:48:29;10.30;89.90
44533;DHT22;48673;53.016;-2.258;2022-09-21T06:51:02;10.40;89.80
44533;DHT22;48673;53.016;-2.258;2022-09-21T06:53:31;10.40;89.80
44533;DHT22;48673;53.016;-2.258;2022-09-21T06:56:07;10.40;89.60
44533;DHT22;48673;53.016;-2.258;2022-09-21T06:58:35;10.40;89.60
44533;DHT22;48673;53.016;-2.258;2022-09-21T07:01:11;10.40;89.50
44533;DHT22;48673;53.016;-2.258;2022-09-21T07:03:40;10.40;89.40
44533;DHT22;48673;53.016;-2.258;2022-09-21T07:06:10;10.50;89.30
44533;DHT22;48673;53.016;-2.258;2022-09-21T07:08:38;10.50;89.20
44533;DHT22;48673;53.016;-2.258;2022-09-21T07:11:26;10.50;89.20
44533;DHT22;48673;53.016;-2.258;2022-09-21T07:13:54;10.50;89.10
44533;DHT22;48673;53.016;-2.258;2022-09-21T07:16:22;10.60;89.10
44533;DHT22;48673;53.016;-2.258;2022-09-21T07:18:50;10.50;89.00
44533;DHT22;48673;53.016;-2.258;2022-09-21T07:21:18;10.50;89.00
44533;DHT22;48673;53.016;-2.258;2022-09-21T07:23:46;10.60;89.00
44533;DHT22;48673;53.016;-2.258;2022-09-21T07:26:14;10.60;89.00
44533;DHT22;48673;53.016;-2.258;2022-09-21T07:28:42;10.60;89.00
44533;DHT22;48673;53.016;-2.258;2022-09-21T07:31:14;10.70;88.90
44533;DHT22;48673;53.016;-2.258;2022-09-21T07:33:43;10.80;88.90
44533;DHT22;48673;53.016;-2.258;2022-09-21T07:36:14;10.80;88.80
44533;DHT22;48673;53.016;-2.258;2022-09-21T07:38:43;10.90;88.70
44533;DHT22;48673;53.016;-2.258;2022-09-21T07:41:13;10.90;88.60
44533;DHT22;48673;53.016;-2.258;2022-09-21T07:43:41;11.00;88.50
44533;DHT22;48673;53.016;-2.258;2022-09-21T07:46:11;11.10;88.40
44533;DHT22;48673;53.016;-2.258;2022-09-21T07:48:40;11.20;88.20
44533;DHT22;48673;53.016;-2.258;2022-09-21T07:51:10;11.30;88.10
44533;DHT22;48673;53.016;-2.258;2022-09-21T07:53:40;11.40;87.80
44533;DHT22;48673;53.016;-2.258;2022-09-21T07:56:11;11.40;87.60
44533;DHT22;48673;53.016;-2.258;2022-09-21T07:58:39;11.50;87.40
44533;DHT22;48673;53.016;-2.258;2022-09-21T08:01:28;11.60;87.20
44533;DHT22;48673;53.016;-2.258;2022-09-21T08:03:57;11.60;87.10
44533;DHT22;48673;53.016;-2.258;2022-09-21T08:06:27;11.80;86.90
44533;DHT22;48673;53.016;-2.258;2022-09-21T08:09:01;11.90;86.70
44533;DHT22;48673;53.016;-2.258;2022-09-21T08:11:30;11.90;86.50
44533;DHT22;48673;53.016;-2.258;2022-09-21T08:14:02;12.10;86.10
44533;DHT22;48673;53.016;-2.258;2022-09-21T08:16:30;12.20;85.80
44533;DHT22;48673;53.016;-2.258;2022-09-21T08:18:58;12.30;85.60
44533;DHT22;48673;53.016;-2.258;2022-09-21T08:21:27;12.40;85.30
44533;DHT22;48673;53.016;-2.258;2022-09-21T08:23:54;12.60;85.20
44533;DHT22;48673;53.016;-2.258;2022-09-21T08:26:22;12.80;85.00
44533;DHT22;48673;53.016;-2.258;2022-09-21T08:28:52;12.90;84.70
44533;DHT22;48673;53.016;-2.258;2022-09-21T08:31:22;13.10;84.30
44533;DHT22;48673;53.016;-2.258;2022-09-21T08:33:51;13.30;84.00
44533;DHT22;48673;53.016;-2.258;2022-09-21T08:36:20;13.40;83.60
44533;DHT22;48673;53.016;-2.258;2022-09-21T08:38:48;13.60;83.40
44533;DHT22;48673;53.016;-2.258;2022-09-21T08:44:50;13.90;82.60
44533;DHT22;48673;53.016;-2.258;2022-09-21T08:47:16;14.00;82.40
44533;DHT22;48673;53.016;-2.258;2022-09-21T08:49:54;14.10;82.00
44533;DHT22;48673;53.016;-2.258;2022-09-21T08:52:24;14.20;81.70
44533;DHT22;48673;53.016;-2.258;2022-09-21T08:54:58;14.20;81.50
44533;DHT22;48673;53.016;-2.258;2022-09-21T08:57:30;14.30;81.30
44533;DHT22;48673;53.016;-2.258;2022-09-21T09:00:01;14.30;81.10
44533;DHT22;48673;53.016;-2.258;2022-09-21T09:03:40;14.40;80.90
44533;DHT22;48673;53.016;-2.258;2022-09-21T09:05:44;14.50;80.50
44533;DHT22;48673;53.016;-2.258;2022-09-21T09:11:41;14.60;80.30
44533;DHT22;48673;53.016;-2.258;2022-09-21T09:17:38;14.90;79.90
44533;DHT22;48673;53.016;-2.258;2022-09-21T09:20:14;14.90;79.50
44533;DHT22;48673;53.016;-2.258;2022-09-21T09:25:22;15.20;78.90
44533;DHT22;48673;53.016;-2.258;2022-09-21T09:27:58;15.30;78.40
44533;DHT22;48673;53.016;-2.258;2022-09-21T09:30:29;15.40;78.00
44533;DHT22;48673;53.016;-2.258;2022-09-21T09:33:09;15.40;77.60
44533;DHT22;48673;53.016;-2.258;2022-09-21T09:35:49;15.60;77.20
44533;DHT22;48673;53.016;-2.258;2022-09-21T09:38:54;15.60;76.90
44533;DHT22;48673;53.016;-2.258;2022-09-21T09:47:14;15.90;75.40
44533;DHT22;48673;53.016;-2.258;2022-09-21T09:52:14;16.00;75.40
44533;DHT22;48673;53.016;-2.258;2022-09-21T09:54:43;16.10;75.00
44533;DHT22;48673;53.016;-2.258;2022-09-21T09:57:11;16.20;74.70
44533;DHT22;48673;53.016;-2.258;2022-09-21T09:59:59;16.30;74.60
44533;DHT22;48673;53.016;-2.258;2022-09-21T10:02:50;16.40;74.10
44533;DHT22;48673;53.016;-2.258;2022-09-21T10:05:24;16.50;73.70
44533;DHT22;48673;53.016;-2.258;2022-09-21T10:07:58;16.50;73.50
44533;DHT22;48673;53.016;-2.258;2022-09-21T10:10:34;16.60;73.60
44533;DHT22;48673;53.016;-2.258;2022-09-21T10:15:30;16.90;73.50
44533;DHT22;48673;53.016;-2.258;2022-09-21T10:18:13;16.90;73.00
44533;DHT22;48673;53.016;-2.258;2022-09-21T10:20:57;17.00;71.90
44533;DHT22;48673;53.016;-2.258;2022-09-21T10:23:26;17.00;71.90
44533;DHT22;48673;53.016;-2.258;2022-09-21T10:26:04;17.00;71.60
44533;DHT22;48673;53.016;-2.258;2022-09-21T10:28:32;17.00;71.50
44533;DHT22;48673;53.016;-2.258;2022-09-21T10:33:49;17.00;71.10
44533;DHT22;48673;53.016;-2.258;2022-09-21T10:39:08;17.30;71.20
44533;DHT22;48673;53.016;-2.258;2022-09-21T10:41:36;17.40;70.90
44533;DHT22;48673;53.016;-2.258;2022-09-21T10:44:17;17.40;69.50
44533;DHT22;48673;53.016;-2.258;2022-09-21T10:46:47;17.40;69.10
44533;DHT22;48673;53.016;-2.258;2022-09-21T10:49:26;17.50;69.20
44533;DHT22;48673;53.016;-2.258;2022-09-21T10:51:56;17.50;69.10
44533;DHT22;48673;53.016;-2.258;2022-09-21T10:54:30;17.60;68.80
44533;DHT22;48673;53.016;-2.258;2022-09-21T10:57:08;17.70;68.40
44533;DHT22;48673;53.016;-2.258;2022-09-21T10:59:36;17.70;68.00
44533;DHT22;48673;53.016;-2.258;2022-09-21T11:10:49;17.80;66.90
44533;DHT22;48673;53.016;-2.258;2022-09-21T11:13:27;17.90;66.40
44533;DHT22;48673;53.016;-2.258;2022-09-21T11:27:32;18.20;64.80
44533;DHT22;48673;53.016;-2.258;2022-09-21T11:38:38;18.40;64.20
44533;DHT22;48673;53.016;-2.258;2022-09-21T11:50:34;18.90;62.30
44533;DHT22;48673;53.016;-2.258;2022-09-21T12:01:17;18.70;61.60
44533;DHT22;48673;53.016;-2.258;2022-09-21T12:07:09;18.70;61.90
44533;DHT22;48673;53.016;-2.258;2022-09-21T12:09:56;18.90;61.60
44533;DHT22;48673;53.016;-2.258;2022-09-21T12:13:23;18.90;60.50
44533;DHT22;48673;53.016;-2.258;2022-09-21T12:19:05;19.00;59.80
44533;DHT22;48673;53.016;-2.258;2022-09-21T12:21:40;19.00;60.30
44533;DHT22;48673;53.016;-2.258;2022-09-21T12:24:17;19.10;60.70
44533;DHT22;48673;53.016;-2.258;2022-09-21T12:26:52;19.20;60.30
44533;DHT22;48673;53.016;-2.258;2022-09-21T12:29:24;19.30;60.10
44533;DHT22;48673;53.016;-2.258;2022-09-21T12:32:21;19.30;59.60
44533;DHT22;48673;53.016;-2.258;2022-09-21T12:34:57;19.40;59.70
44533;DHT22;48673;53.016;-2.258;2022-09-21T12:37:39;19.50;58.60
44533;DHT22;48673;53.016;-2.258;2022-09-21T12:40:27;19.60;58.00
44533;DHT22;48673;53.016;-2.258;2022-09-21T12:48:32;19.80;57.80
44533;DHT22;48673;53.016;-2.258;2022-09-21T12:53:54;19.90;57.10
44533;DHT22;48673;53.016;-2.258;2022-09-21T12:56:43;20.10;57.20
44533;DHT22;48673;53.016;-2.258;2022-09-21T13:01:55;20.50;57.20
44533;DHT22;48673;53.016;-2.258;2022-09-21T13:04:39;20.90;56.30
44533;DHT22;48673;53.016;-2.258;2022-09-21T13:10:33;21.40;53.30
44533;DHT22;48673;53.016;-2.258;2022-09-21T13:13:15;21.60;52.50
44533;DHT22;48673;53.016;-2.258;2022-09-21T13:15:46;22.00;51.40
44533;DHT22;48673;53.016;-2.258;2022-09-21T13:18:25;22.20;50.20
44533;DHT22;48673;53.016;-2.258;2022-09-21T13:20:53;22.10;49.90
44533;DHT22;48673;53.016;-2.258;2022-09-21T13:23:36;22.00;49.40
44533;DHT22;48673;53.016;-2.258;2022-09-21T13:26:10;22.00;49.70
44533;DHT22;48673;53.016;-2.258;2022-09-21T13:31:30;22.30;48.80
44533;DHT22;48673;53.016;-2.258;2022-09-21T13:34:26;22.20;47.70
44533;DHT22;48673;53.016;-2.258;2022-09-21T13:37:28;22.00;48.00
44533;DHT22;48673;53.016;-2.258;2022-09-21T13:47:45;22.40;47.00
44533;DHT22;48673;53.016;-2.258;2022-09-21T13:52:47;22.60;45.20
44533;DHT22;48673;53.016;-2.258;2022-09-21T13:55:30;22.40;45.10
44533;DHT22;48673;53.016;-2.258;2022-09-21T14:01:05;22.20;45.40
44533;DHT22;48673;53.016;-2.258;2022-09-21T14:04:14;22.00;46.00
44533;DHT22;48673;53.016;-2.258;2022-09-21T14:06:47;22.00;45.90
44533;DHT22;48673;53.016;-2.258;2022-09-21T14:09:39;21.90;46.10
44533;DHT22;48673;53.016;-2.258;2022-09-21T14:12:16;21.80;46.20
44533;DHT22;48673;53.016;-2.258;2022-09-21T14:17:42;21.60;46.20
44533;DHT22;48673;53.016;-2.258;2022-09-21T14:20:28;21.90;46.60
44533;DHT22;48673;53.016;-2.258;2022-09-21T14:25:50;22.90;43.50
44533;DHT22;48673;53.016;-2.258;2022-09-21T14:28:47;22.90;42.80
44533;DHT22;48673;53.016;-2.258;2022-09-21T14:31:26;22.50;43.60
44533;DHT22;48673;53.016;-2.258;2022-09-21T14:33:57;22.10;44.30
44533;DHT22;48673;53.016;-2.258;2022-09-21T14:36:36;21.70;44.80
44533;DHT22;48673;53.016;-2.258;2022-09-21T14:39:21;21.60;45.50
44533;DHT22;48673;53.016;-2.258;2022-09-21T14:41:55;21.60;45.40
44533;DHT22;48673;53.016;-2.258;2022-09-21T14:44:28;21.60;45.00
44533;DHT22;48673;53.016;-2.258;2022-09-21T14:50:12;21.20;45.40
44533;DHT22;48673;53.016;-2.258;2022-09-21T14:55:47;21.00;46.80
44533;DHT22;48673;53.016;-2.258;2022-09-21T15:19:28;20.20;48.10
44533;DHT22;48673;53.016;-2.258;2022-09-21T15:22:15;20.40;47.70
44533;DHT22;48673;53.016;-2.258;2022-09-21T15:27:23;20.30;47.70
44533;DHT22;48673;53.016;-2.258;2022-09-21T15:29:53;20.20;48.10
44533;DHT22;48673;53.016;-2.258;2022-09-21T15:32:26;20.10;48.20
44533;DHT22;48673;53.016;-2.258;2022-09-21T15:35:02;20.00;47.70
44533;DHT22;48673;53.016;-2.258;2022-09-21T15:37:35;19.80;47.70
44533;DHT22;48673;53.016;-2.258;2022-09-21T15:40:05;19.60;48.10
44533;DHT22;48673;53.016;-2.258;2022-09-21T15:45:29;19.30;49.60
44533;DHT22;48673;53.016;-2.258;2022-09-21T15:48:01;19.30;49.90
44533;DHT22;48673;53.016;-2.258;2022-09-21T15:50:35;19.40;49.90
44533;DHT22;48673;53.016;-2.258;2022-09-21T15:53:11;19.60;49.70
44533;DHT22;48673;53.016;-2.258;2022-09-21T15:55:46;19.90;49.50
44533;DHT22;48673;53.016;-2.258;2022-09-21T16:00:56;20.30;49.00
44533;DHT22;48673;53.016;-2.258;2022-09-21T16:03:24;20.40;48.70
44533;DHT22;48673;53.016;-2.258;2022-09-21T16:05:54;20.40;48.80
44533;DHT22;48673;53.016;-2.258;2022-09-21T16:08:31;20.40;48.90
44533;DHT22;48673;53.016;-2.258;2022-09-21T16:11:14;20.40;49.00
44533;DHT22;48673;53.016;-2.258;2022-09-21T16:13:43;20.50;49.30
44533;DHT22;48673;53.016;-2.258;2022-09-21T16:16:30;20.40;49.10
44533;DHT22;48673;53.016;-2.258;2022-09-21T16:18:58;20.40;49.30
44533;DHT22;48673;53.016;-2.258;2022-09-21T16:21:31;20.30;49.30
44533;DHT22;48673;53.016;-2.258;2022-09-21T16:24:17;20.20;49.40
44533;DHT22;48673;53.016;-2.258;2022-09-21T16:26:58;20.20;49.50
44533;DHT22;48673;53.016;-2.258;2022-09-21T16:29:40;20.20;49.70
44533;DHT22;48673;53.016;-2.258;2022-09-21T16:34:46;20.20;50.10
44533;DHT22;48673;53.016;-2.258;2022-09-21T16:39:56;20.50;49.80
44533;DHT22;48673;53.016;-2.258;2022-09-21T16:42:27;20.50;49.50
44533;DHT22;48673;53.016;-2.258;2022-09-21T16:45:00;20.40;49.70
44533;DHT22;48673;53.016;-2.258;2022-09-21T16:47:29;20.10;50.30
44533;DHT22;48673;53.016;-2.258;2022-09-21T16:49:58;19.90;50.90
44533;DHT22;48673;53.016;-2.258;2022-09-21T16:52:30;19.80;51.20
44533;DHT22;48673;53.016;-2.258;2022-09-21T16:54:58;19.70;50.90
44533;DHT22;48673;53.016;-2.258;2022-09-21T16:57:27;19.50;50.90
44533;DHT22;48673;53.016;-2.258;2022-09-21T16:59:55;19.40;51.20
44533;DHT22;48673;53.016;-2.258;2022-09-21T17:02:24;19.30;51.10
44533;DHT22;48673;53.016;-2.258;2022-09-21T17:04:52;19.30;51.20
44533;DHT22;48673;53.016;-2.258;2022-09-21T17:07:20;19.30;51.70
44533;DHT22;48673;53.016;-2.258;2022-09-21T17:09:48;19.30;52.00
44533;DHT22;48673;53.016;-2.258;2022-09-21T17:12:20;19.30;51.90
44533;DHT22;48673;53.016;-2.258;2022-09-21T17:14:53;19.30;51.70
44533;DHT22;48673;53.016;-2.258;2022-09-21T17:17:22;19.10;51.80
44533;DHT22;48673;53.016;-2.258;2022-09-21T17:19:52;19.00;51.80
44533;DHT22;48673;53.016;-2.258;2022-09-21T17:22:20;18.90;51.90
44533;DHT22;48673;53.016;-2.258;2022-09-21T17:24:54;18.80;52.20
44533;DHT22;48673;53.016;-2.258;2022-09-21T17:27:25;18.60;52.70
44533;DHT22;48673;53.016;-2.258;2022-09-21T17:29:56;18.40;53.00
44533;DHT22;48673;53.016;-2.258;2022-09-21T17:32:28;18.30;53.40
44533;DHT22;48673;53.016;-2.258;2022-09-21T17:35:15;18.20;53.90
44533;DHT22;48673;53.016;-2.258;2022-09-21T17:37:47;18.00;54.30
44533;DHT22;48673;53.016;-2.258;2022-09-21T17:40:15;17.90;54.50
44533;DHT22;48673;53.016;-2.258;2022-09-21T17:42:43;17.90;54.80
44533;DHT22;48673;53.016;-2.258;2022-09-21T17:45:36;17.80;55.30
44533;DHT22;48673;53.016;-2.258;2022-09-21T17:48:15;17.70;55.90
44533;DHT22;48673;53.016;-2.258;2022-09-21T17:50:46;17.50;56.10
44533;DHT22;48673;53.016;-2.258;2022-09-21T17:53:14;17.40;56.60
44533;DHT22;48673;53.016;-2.258;2022-09-21T17:56:30;17.20;57.10
44533;DHT22;48673;53.016;-2.258;2022-09-21T17:59:04;17.00;57.90
44533;DHT22;48673;53.016;-2.258;2022-09-21T18:01:34;16.90;58.20
44533;DHT22;48673;53.016;-2.258;2022-09-21T18:04:04;16.80;58.40
44533;DHT22;48673;53.016;-2.258;2022-09-21T18:06:32;16.70;58.80
44533;DHT22;48673;53.016;-2.258;2022-09-21T18:09:02;16.60;59.10
44533;DHT22;48673;53.016;-2.258;2022-09-21T18:11:52;16.50;59.60
44533;DHT22;48673;53.016;-2.258;2022-09-21T18:14:45;16.40;60.30
44533;DHT22;48673;53.016;-2.258;2022-09-21T18:20:27;16.20;61.40
44533;DHT22;48673;53.016;-2.258;2022-09-21T18:23:04;16.00;61.80
44533;DHT22;48673;53.016;-2.258;2022-09-21T18:25:35;15.90;62.20
44533;DHT22;48673;53.016;-2.258;2022-09-21T18:28:22;15.80;62.60
44533;DHT22;48673;53.016;-2.258;2022-09-21T18:43:30;14.90;65.70
44533;DHT22;48673;53.016;-2.258;2022-09-21T18:46:12;14.80;66.60
44533;DHT22;48673;53.016;-2.258;2022-09-21T18:48:57;14.60;67.10
44533;DHT22;48673;53.016;-2.258;2022-09-21T18:51:33;14.50;67.70
44533;DHT22;48673;53.016;-2.258;2022-09-21T18:54:06;14.40;67.90
44533;DHT22;48673;53.016;-2.258;2022-09-21T18:56:43;14.30;68.40
44533;DHT22;48673;53.016;-2.258;2022-09-21T18:59:12;14.20;68.80
44533;DHT22;48673;53.016;-2.258;2022-09-21T19:01:42;14.00;69.10
44533;DHT22;48673;53.016;-2.258;2022-09-21T19:04:11;13.90;69.70
44533;DHT22;48673;53.016;-2.258;2022-09-21T19:07:03;13.90;70.10
44533;DHT22;48673;53.016;-2.258;2022-09-21T19:15:20;13.60;71.00
44533;DHT22;48673;53.016;-2.258;2022-09-21T19:18:36;13.50;71.60
44533;DHT22;48673;53.016;-2.258;2022-09-21T19:35:27;13.20;72.90
44533;DHT22;48673;53.016;-2.258;2022-09-21T19:37:57;13.10;73.30
44533;DHT22;48673;53.016;-2.258;2022-09-21T19:40:29;13.10;73.30
44533;DHT22;48673;53.016;-2.258;2022-09-21T19:43:08;13.00;73.60
44533;DHT22;48673;53.016;-2.258;2022-09-21T19:46:10;12.90;73.80
44533;DHT22;48673;53.016;-2.258;2022-09-21T19:51:17;12.90;74.40
44533;DHT22;48673;53.016;-2.258;2022-09-21T19:53:54;12.80;74.60
44533;DHT22;48673;53.016;-2.258;2022-09-21T19:56:48;12.80;74.70
44533;DHT22;48673;53.016;-2.258;2022-09-21T19:59:36;12.80;74.90
44533;DHT22;48673;53.016;-2.258;2022-09-21T20:02:15;12.70;74.90
44533;DHT22;48673;53.016;-2.258;2022-09-21T20:07:45;12.70;75.20